createdAt,value
2022-09-25T00:01:00.355Z,25.25
2022-09-25T00:03:29.142Z,23.00
2022-09-25T00:06:15.161Z,23.30
2022-09-25T00:08:42.581Z,21.88
2022-09-25T00:11:14.226Z,25.15
2022-09-25T00:13:43.013Z,23.27
2022-09-25T00:16:10.934Z,25.83
2022-09-25T00:18:56.789Z,26.25
2022-09-25T00:21:29.297Z,24.42
2022-09-25T00:23:56.548Z,24.63
2022-09-25T00:26:23.751Z,31.05
2022-09-25T00:28:52.174Z,26.95
2022-09-25T00:31:23.305Z,28.60
2022-09-25T00:33:54.347Z,25.50
2022-09-25T00:36:21.569Z,25.33
2022-09-25T00:38:49.118Z,24.13
2022-09-25T00:41:17.714Z,26.38
2022-09-25T00:43:46.582Z,26.98
2022-09-25T00:46:17.303Z,24.58
2022-09-25T00:48:56.224Z,28.13
2022-09-25T00:51:29.126Z,24.98
2022-09-25T00:53:58.236Z,25.95
2022-09-25T00:56:25.796Z,22.70
2022-09-25T00:58:53.045Z,23.17
2022-09-25T01:01:22.420Z,21.35
2022-09-25T01:03:49.720Z,18.33
2022-09-25T01:06:17.750Z,19.25
2022-09-25T01:08:45.874Z,18.48
2022-09-25T01:11:13.154Z,20.13
2022-09-25T01:13:41.400Z,18.85
2022-09-25T01:16:11.716Z,26.27
2022-09-25T01:18:52.627Z,32.85
2022-09-25T01:21:46.067Z,25.48
2022-09-25T01:24:32.416Z,20.67
2022-09-25T01:27:06.739Z,20.65
2022-09-25T01:32:04.416Z,20.77
2022-09-25T01:34:40.878Z,20.70
2022-09-25T01:37:17.364Z,32.42
2022-09-25T01:39:47.588Z,26.48
2022-09-25T01:42:20.179Z,39.03
2022-09-25T01:44:51.151Z,57.80
2022-09-25T01:47:22.357Z,85.78
2022-09-25T01:49:51.273Z,61.33
2022-09-25T01:52:20.703Z,64.72
2022-09-25T01:54:52.676Z,43.33
2022-09-25T01:57:35.221Z,52.15
2022-09-25T02:00:06.823Z,36.25
2022-09-25T02:02:36.414Z,55.95
2022-09-25T02:05:06.618Z,35.50
2022-09-25T02:07:39.686Z,48.20
2022-09-25T02:10:10.847Z,110.95
2022-09-25T02:12:40.959Z,113.57
2022-09-25T02:15:28.716Z,58.85
2022-09-25T02:18:26.249Z,64.30
2022-09-25T02:21:00.366Z,101.07
2022-09-25T02:24:03.278Z,244.43
2022-09-25T02:26:31.710Z,204.98
2022-09-25T02:28:59.484Z,117.57
2022-09-25T02:31:31.204Z,316.00
2022-09-25T02:33:59.229Z,55.05
2022-09-25T02:36:26.557Z,185.90
2022-09-25T02:38:54.739Z,293.95
2022-09-25T02:41:29.655Z,208.68
2022-09-25T02:44:12.332Z,51.13
2022-09-25T02:46:42.660Z,203.50
2022-09-25T02:49:15.943Z,142.80
2022-09-25T02:51:50.635Z,46.53
2022-09-25T02:54:22.163Z,335.88
2022-09-25T02:56:53.968Z,295.20
2022-09-25T02:59:28.675Z,367.88
2022-09-25T03:01:57.018Z,78.88
2022-09-25T03:04:24.632Z,124.95
2022-09-25T03:06:52.054Z,61.78
2022-09-25T03:09:21.073Z,77.25
2022-09-25T03:11:48.305Z,45.50
2022-09-25T03:14:15.558Z,140.65
2022-09-25T03:16:47.257Z,44.72
2022-09-25T03:19:15.007Z,71.00
2022-09-25T03:21:42.282Z,54.17
2022-09-25T03:24:10.239Z,91.68
2022-09-25T03:26:37.507Z,93.95
2022-09-25T03:29:04.884Z,130.65
2022-09-25T03:31:32.651Z,62.92
2022-09-25T03:33:59.916Z,90.95
2022-09-25T03:36:28.239Z,49.03
2022-09-25T03:38:59.579Z,52.78
2022-09-25T03:41:31.137Z,87.13
2022-09-25T03:43:58.857Z,86.07
2022-09-25T03:46:36.038Z,177.77
2022-09-25T03:49:03.911Z,54.95
2022-09-25T03:51:32.075Z,54.53
2022-09-25T03:53:59.527Z,46.60
2022-09-25T03:56:28.128Z,48.60
2022-09-25T03:58:55.684Z,54.70
2022-09-25T04:01:23.691Z,52.97
2022-09-25T04:03:51.256Z,53.40
2022-09-25T04:06:20.156Z,61.78
2022-09-25T04:08:48.701Z,54.45
2022-09-25T04:11:16.982Z,45.03
2022-09-25T04:13:44.909Z,52.22
2022-09-25T04:16:13.019Z,43.45
2022-09-25T04:18:42.876Z,43.90
2022-09-25T04:21:11.235Z,41.40
2022-09-25T04:23:38.737Z,47.25
2022-09-25T04:26:06.084Z,42.85
2022-09-25T04:28:33.526Z,45.55
2022-09-25T04:31:02.156Z,41.38
2022-09-25T04:33:48.293Z,40.17
2022-09-25T04:36:16.486Z,51.72
2022-09-25T04:38:44.278Z,50.85
2022-09-25T04:41:11.794Z,51.85
2022-09-25T04:43:42.831Z,46.72
2022-09-25T04:46:15.426Z,48.20
2022-09-25T04:48:46.573Z,54.33
2022-09-25T04:51:14.257Z,84.15
2022-09-25T04:53:41.677Z,52.42
2022-09-25T04:56:14.724Z,55.88
2022-09-25T04:58:45.042Z,96.72
2022-09-25T05:01:12.372Z,157.20
2022-09-25T05:03:39.915Z,206.73
2022-09-25T05:06:07.379Z,127.28
2022-09-25T05:08:34.571Z,75.32
2022-09-25T05:11:02.010Z,225.98
2022-09-25T05:13:29.263Z,202.63
2022-09-25T05:15:56.656Z,206.65
2022-09-25T05:18:24.337Z,76.15
2022-09-25T05:20:53.522Z,53.75
2022-09-25T05:23:21.073Z,65.35
2022-09-25T05:25:55.448Z,57.70
2022-09-25T05:30:51.387Z,55.55
2022-09-25T05:33:19.254Z,51.08
2022-09-25T05:35:46.751Z,47.35
2022-09-25T05:38:14.001Z,46.85
2022-09-25T05:40:43.617Z,45.88
2022-09-25T05:43:12.596Z,45.72
2022-09-25T05:45:39.862Z,40.70
2022-09-25T05:48:08.351Z,53.50
2022-09-25T05:50:35.828Z,46.58
2022-09-25T05:53:04.502Z,53.25
2022-09-25T05:55:31.927Z,90.05
2022-09-25T05:58:03.043Z,82.25
2022-09-25T06:00:32.953Z,50.53
2022-09-25T06:03:03.532Z,48.58
2022-09-25T06:05:30.904Z,131.73
2022-09-25T06:07:58.157Z,94.10
2022-09-25T06:10:27.045Z,115.03
2022-09-25T06:13:01.239Z,102.93
2022-09-25T06:15:29.194Z,105.68
2022-09-25T06:17:56.922Z,80.13
2022-09-25T06:20:25.051Z,58.83
2022-09-25T06:22:53.057Z,84.05
2022-09-25T06:25:20.307Z,53.95
2022-09-25T06:27:47.512Z,78.32
2022-09-25T06:30:14.938Z,55.50
2022-09-25T06:32:42.133Z,51.95
2022-09-25T06:35:09.643Z,100.72
2022-09-25T06:37:36.899Z,103.95
2022-09-25T06:40:04.382Z,120.43
2022-09-25T06:42:34.126Z,81.63
2022-09-25T06:45:01.794Z,52.85
2022-09-25T06:47:29.033Z,70.32
2022-09-25T06:49:56.229Z,48.53
2022-09-25T06:52:23.468Z,58.85
2022-09-25T06:54:50.907Z,49.13
2022-09-25T06:57:18.171Z,49.08
2022-09-25T06:59:45.387Z,58.88
2022-09-25T07:02:31.416Z,55.92
2022-09-25T07:05:00.481Z,56.60
2022-09-25T07:07:27.845Z,73.72
2022-09-25T07:09:55.064Z,51.97
2022-09-25T07:12:22.790Z,51.47
2022-09-25T07:14:50.000Z,86.95
2022-09-25T07:17:17.227Z,66.93
2022-09-25T07:19:44.440Z,48.65
2022-09-25T07:22:12.135Z,44.40
2022-09-25T07:24:39.388Z,42.83
2022-09-25T07:27:06.652Z,44.00
2022-09-25T07:29:35.622Z,39.22
2022-09-25T07:32:04.848Z,40.97
2022-09-25T07:34:32.118Z,38.35
2022-09-25T07:36:59.364Z,40.53
2022-09-25T07:39:26.592Z,39.15
2022-09-25T07:41:55.353Z,38.45
2022-09-25T07:44:36.215Z,36.10
2022-09-25T07:47:05.465Z,43.45
2022-09-25T07:49:32.712Z,39.80
2022-09-25T07:52:00.036Z,40.47
2022-09-25T07:54:27.445Z,39.05
2022-09-25T07:56:54.676Z,39.70
2022-09-25T07:59:21.923Z,41.78
2022-09-25T08:01:53.728Z,42.53
2022-09-25T08:04:21.598Z,41.20
2022-09-25T08:06:48.779Z,40.40
2022-09-25T08:09:16.015Z,52.55
2022-09-25T08:11:44.071Z,44.67
2022-09-25T08:14:14.432Z,46.03
2022-09-25T08:16:42.880Z,47.67
2022-09-25T08:19:10.994Z,47.08
2022-09-25T08:21:38.223Z,52.22
2022-09-25T08:24:05.952Z,50.88
2022-09-25T08:26:33.401Z,51.40
2022-09-25T08:29:00.770Z,47.97
2022-09-25T08:31:28.155Z,57.60
2022-09-25T08:33:55.662Z,55.13
2022-09-25T08:36:26.388Z,53.03
2022-09-25T08:38:56.448Z,58.85
2022-09-25T08:41:24.906Z,50.65
2022-09-25T08:43:58.008Z,45.88
2022-09-25T08:46:49.115Z,53.22
2022-09-25T08:49:19.724Z,52.25
2022-09-25T08:51:48.210Z,52.05
2022-09-25T08:54:25.630Z,53.60
2022-09-25T08:56:57.994Z,53.33
2022-09-25T08:59:39.817Z,51.75
2022-09-25T09:02:29.968Z,50.05
2022-09-25T09:04:58.431Z,49.88
2022-09-25T09:07:27.246Z,48.30
2022-09-25T09:10:08.584Z,46.30
2022-09-25T09:12:46.656Z,54.97
2022-09-25T09:15:22.980Z,51.75
2022-09-25T09:17:50.217Z,50.80
2022-09-25T09:20:19.154Z,49.17
2022-09-25T09:22:52.808Z,60.63
2022-09-25T09:25:27.115Z,56.50
2022-09-25T09:28:09.669Z,52.47
2022-09-25T09:30:49.277Z,47.05
2022-09-25T09:33:20.044Z,55.65
2022-09-25T09:36:02.802Z,51.60
2022-09-25T09:38:30.037Z,50.53
2022-09-25T09:41:00.279Z,50.42
2022-09-25T09:43:43.167Z,52.28
2022-09-25T09:46:16.339Z,48.72
2022-09-25T09:49:00.533Z,46.38
2022-09-25T09:51:32.533Z,44.55
2022-09-25T09:54:04.457Z,53.38
2022-09-25T09:56:32.874Z,49.70
2022-09-25T09:59:18.930Z,52.38
2022-09-25T10:01:48.201Z,50.30
2022-09-25T10:04:17.638Z,46.67
2022-09-25T10:06:47.674Z,46.75
2022-09-25T10:09:18.701Z,49.58
2022-09-25T10:11:47.842Z,49.05
2022-09-25T10:14:21.176Z,48.85
2022-09-25T10:16:50.911Z,44.40
2022-09-25T10:19:26.370Z,47.75
2022-09-25T10:22:03.124Z,42.97
2022-09-25T10:24:52.362Z,36.97
2022-09-25T10:27:36.736Z,36.33
2022-09-25T10:30:07.437Z,37.80
2022-09-25T10:32:35.818Z,37.72
2022-09-25T10:35:03.270Z,35.13
2022-09-25T10:37:35.033Z,31.55
2022-09-25T10:40:06.927Z,31.33
2022-09-25T10:42:39.437Z,33.67
2022-09-25T10:45:25.480Z,35.70
2022-09-25T10:48:11.227Z,42.00
2022-09-25T10:50:38.513Z,46.42
2022-09-25T10:53:07.637Z,41.28
2022-09-25T10:55:36.570Z,37.00
2022-09-25T10:58:14.113Z,39.35
2022-09-25T11:00:44.328Z,39.45
2022-09-25T11:03:20.476Z,43.00
2022-09-25T11:05:55.273Z,44.63
2022-09-25T11:08:24.864Z,44.85
2022-09-25T11:10:53.758Z,44.90
2022-09-25T11:13:24.475Z,46.13
2022-09-25T11:15:53.918Z,48.90
2022-09-25T11:18:39.536Z,50.50
2022-09-25T11:21:07.687Z,47.10
2022-09-25T11:23:41.581Z,47.13
2022-09-25T11:26:30.292Z,48.10
2022-09-25T11:29:05.256Z,46.53
2022-09-25T11:31:35.576Z,38.22
2022-09-25T11:34:02.920Z,42.10
2022-09-25T11:36:33.797Z,41.28
2022-09-25T11:39:28.502Z,36.05
2022-09-25T11:41:58.908Z,36.08
2022-09-25T11:44:32.947Z,32.92
2022-09-25T11:47:04.971Z,36.95
2022-09-25T11:49:40.045Z,33.22
2022-09-25T11:52:19.214Z,32.63
2022-09-25T11:54:49.481Z,37.90
2022-09-25T11:57:25.533Z,34.47
2022-09-25T12:00:09.930Z,30.85
2022-09-25T12:02:46.381Z,31.23
2022-09-25T12:05:29.033Z,30.88
2022-09-25T12:07:59.375Z,31.08
2022-09-25T12:10:29.612Z,32.45
2022-09-25T12:13:03.159Z,27.80
2022-09-25T12:15:49.466Z,24.95
2022-09-25T12:18:22.816Z,28.25
2022-09-25T12:20:53.506Z,24.40
2022-09-25T12:23:34.202Z,25.35
2022-09-25T12:26:07.538Z,22.77
2022-09-25T12:28:52.658Z,25.88
2022-09-25T12:31:29.710Z,24.35
2022-09-25T12:34:09.154Z,21.75
2022-09-25T12:36:40.285Z,20.83
2022-09-25T12:39:26.494Z,21.70
2022-09-25T12:42:13.842Z,26.13
2022-09-25T12:44:50.365Z,19.30
2022-09-25T12:47:21.811Z,18.63
2022-09-25T12:49:57.120Z,18.08
2022-09-25T12:52:30.899Z,17.13
2022-09-25T12:55:01.175Z,19.42
2022-09-25T12:57:32.417Z,17.75
2022-09-25T13:00:03.892Z,18.95
2022-09-25T13:02:34.932Z,19.58
2022-09-25T13:05:02.485Z,19.88
2022-09-25T13:07:32.763Z,17.63
2022-09-25T13:10:00.565Z,17.85
2022-09-25T13:12:38.522Z,14.95
2022-09-25T13:15:09.540Z,16.48
2022-09-25T13:17:37.836Z,14.55
2022-09-25T13:20:23.984Z,17.77
2022-09-25T13:22:51.328Z,18.17
2022-09-25T13:25:19.011Z,17.20
2022-09-25T13:27:47.001Z,20.88
2022-09-25T13:30:25.442Z,17.17
2022-09-25T13:32:53.862Z,13.82
2022-09-25T13:35:22.610Z,15.82
2022-09-25T13:37:51.486Z,13.77
2022-09-25T13:40:39.337Z,18.85
2022-09-25T13:43:25.305Z,13.90
2022-09-25T13:46:13.953Z,16.23
2022-09-25T13:48:41.426Z,12.55
2022-09-25T13:51:31.667Z,10.85
2022-09-25T13:54:01.700Z,10.32
2022-09-25T13:56:49.307Z,12.30
2022-09-25T13:59:16.652Z,9.45
2022-09-25T14:01:44.006Z,11.40
2022-09-25T14:04:14.291Z,13.60
2022-09-25T14:06:42.645Z,13.63
2022-09-25T14:09:11.915Z,9.45
2022-09-25T14:11:39.871Z,20.40
2022-09-25T14:14:13.544Z,12.40
2022-09-25T14:16:43.834Z,9.98
2022-09-25T14:19:17.064Z,12.57
2022-09-25T14:21:45.203Z,11.65
2022-09-25T14:24:17.642Z,10.23
2022-09-25T14:26:46.095Z,11.18
2022-09-25T14:29:17.633Z,10.30
2022-09-25T14:31:52.186Z,10.48
2022-09-25T14:34:37.872Z,9.77
2022-09-25T14:37:14.225Z,9.65
2022-09-25T14:39:41.649Z,11.10
2022-09-25T14:42:27.080Z,9.82
2022-09-25T14:44:55.395Z,13.48
2022-09-25T14:47:23.921Z,11.07
2022-09-25T14:49:52.202Z,8.40
2022-09-25T14:52:25.420Z,7.95
2022-09-25T14:54:55.286Z,11.68
2022-09-25T14:57:27.371Z,8.65
2022-09-25T14:59:59.085Z,8.05
2022-09-25T15:02:34.175Z,12.63
2022-09-25T15:05:17.347Z,9.73
2022-09-25T15:07:45.483Z,11.63
2022-09-25T15:10:24.972Z,9.60
2022-09-25T15:12:52.277Z,7.45
2022-09-25T15:15:21.657Z,8.45
2022-09-25T15:17:50.922Z,7.20
2022-09-25T15:20:20.928Z,13.38
2022-09-25T15:22:50.126Z,6.97
2022-09-25T15:25:21.602Z,8.60
2022-09-25T15:27:49.764Z,12.55
2022-09-25T15:30:18.037Z,7.90
2022-09-25T15:32:48.193Z,7.93
2022-09-25T15:35:18.488Z,11.25
2022-09-25T15:37:46.578Z,7.40
2022-09-25T15:40:23.192Z,8.57
2022-09-25T15:42:50.847Z,11.32
2022-09-25T15:45:33.529Z,8.52
2022-09-25T15:48:01.986Z,9.85
2022-09-25T15:50:29.749Z,7.82
2022-09-25T15:52:58.319Z,8.65
2022-09-25T15:55:25.942Z,9.23
2022-09-25T15:57:53.938Z,7.35
2022-09-25T16:00:41.376Z,8.50
2022-09-25T16:03:32.993Z,9.10
2022-09-25T16:06:01.905Z,9.38
2022-09-25T16:08:31.799Z,9.82
2022-09-25T16:11:07.580Z,9.35
2022-09-25T16:13:43.702Z,8.93
2022-09-25T16:16:21.616Z,8.30
2022-09-25T16:18:49.471Z,7.93
2022-09-25T16:21:19.481Z,8.50
2022-09-25T16:23:57.587Z,8.00
2022-09-25T16:26:26.387Z,8.63
2022-09-25T16:29:00.006Z,7.22
2022-09-25T16:31:27.469Z,7.40
2022-09-25T16:33:57.373Z,10.82
2022-09-25T16:36:26.591Z,9.15
2022-09-25T16:39:09.428Z,8.50
2022-09-25T16:41:37.654Z,9.93
2022-09-25T16:44:18.689Z,8.00
2022-09-25T16:47:07.072Z,8.95
2022-09-25T16:49:34.889Z,9.73
2022-09-25T16:52:05.040Z,8.90
2022-09-25T16:54:32.622Z,16.17
2022-09-25T16:57:02.332Z,9.85
2022-09-25T16:59:29.632Z,7.28
2022-09-25T17:01:58.722Z,6.40
2022-09-25T17:04:28.264Z,9.90
2022-09-25T17:06:57.081Z,7.88
2022-09-25T17:09:28.579Z,7.63
2022-09-25T17:12:05.302Z,10.43
2022-09-25T17:14:32.623Z,8.45
2022-09-25T17:16:59.929Z,13.57
2022-09-25T17:19:27.682Z,11.20
2022-09-25T17:21:56.257Z,8.32
2022-09-25T17:24:26.354Z,9.95
2022-09-25T17:26:53.804Z,8.07
2022-09-25T17:29:21.609Z,10.32
2022-09-25T17:31:48.850Z,7.20
2022-09-25T17:34:25.189Z,9.60
2022-09-25T17:36:52.926Z,8.00
2022-09-25T17:39:20.197Z,9.25
2022-09-25T17:41:47.693Z,14.68
2022-09-25T17:44:18.921Z,8.40
2022-09-25T17:46:46.451Z,10.40
2022-09-25T17:49:13.896Z,7.15
2022-09-25T17:51:41.891Z,10.05
2022-09-25T17:54:11.805Z,8.38
2022-09-25T17:56:39.840Z,8.63
2022-09-25T17:59:08.531Z,9.07
2022-09-25T18:01:39.427Z,10.45
2022-09-25T18:04:13.726Z,9.10
2022-09-25T18:06:43.495Z,10.90
2022-09-25T18:09:11.020Z,10.90
2022-09-25T18:11:42.764Z,10.45
2022-09-25T18:14:11.860Z,9.80
2022-09-25T18:16:40.534Z,8.45
2022-09-25T18:19:26.258Z,9.25
2022-09-25T18:22:12.074Z,11.68
2022-09-25T18:24:40.018Z,13.32
2022-09-25T18:27:10.382Z,9.25
2022-09-25T18:29:37.626Z,11.73
2022-09-25T18:32:05.119Z,10.55
2022-09-25T18:34:32.328Z,11.40
2022-09-25T18:36:59.578Z,12.30
2022-09-25T18:39:26.822Z,13.82
2022-09-25T18:41:54.089Z,11.68
2022-09-25T18:44:23.574Z,12.43
2022-09-25T18:46:51.392Z,11.20
2022-09-25T18:49:19.268Z,13.55
2022-09-25T18:51:46.564Z,12.27
2022-09-25T18:54:14.641Z,14.60
2022-09-25T18:56:41.966Z,13.40
2022-09-25T18:59:09.427Z,11.93
2022-09-25T19:01:37.723Z,13.70
2022-09-25T19:04:05.763Z,11.10
2022-09-25T19:06:33.459Z,10.32
2022-09-25T19:09:01.866Z,12.20
2022-09-25T19:11:29.823Z,11.15
2022-09-25T19:13:57.101Z,10.60
2022-09-25T19:16:24.684Z,11.02
2022-09-25T19:18:51.972Z,13.27
2022-09-25T19:21:23.252Z,14.43
2022-09-25T19:23:50.800Z,10.48
2022-09-25T19:26:20.014Z,14.88
2022-09-25T19:28:47.448Z,12.45
2022-09-25T19:31:16.132Z,10.98
2022-09-25T19:33:44.168Z,11.02
2022-09-25T19:36:14.784Z,10.45
2022-09-25T19:38:43.186Z,11.10
2022-09-25T19:41:15.385Z,10.80
2022-09-25T19:43:42.763Z,12.82
2022-09-25T19:46:12.170Z,9.55
2022-09-25T19:48:39.534Z,10.00
2022-09-25T19:51:07.877Z,13.93
2022-09-25T19:53:35.778Z,13.32
2022-09-25T19:56:03.272Z,10.73
2022-09-25T19:58:31.897Z,9.85
2022-09-25T20:01:00.591Z,9.10
2022-09-25T20:03:27.874Z,11.30
2022-09-25T20:05:55.312Z,9.75
2022-09-25T20:08:22.600Z,12.48
2022-09-25T20:10:49.833Z,11.27
2022-09-25T20:13:17.280Z,10.80
2022-09-25T20:15:45.824Z,10.40
2022-09-25T20:18:13.246Z,10.52
2022-09-25T20:20:40.660Z,11.35
2022-09-25T20:23:08.547Z,11.07
2022-09-25T20:25:35.807Z,11.43
2022-09-25T20:28:03.200Z,12.63
2022-09-25T20:30:35.043Z,10.02
2022-09-25T20:33:03.907Z,13.50
2022-09-25T20:35:31.240Z,11.80
2022-09-25T20:37:58.558Z,11.02
2022-09-25T20:40:25.870Z,15.45
2022-09-25T20:42:53.124Z,11.07
2022-09-25T20:45:20.378Z,10.48
2022-09-25T20:47:47.605Z,10.32
2022-09-25T20:50:15.549Z,8.95
2022-09-25T20:52:44.304Z,10.50
2022-09-25T20:55:12.190Z,10.73
2022-09-25T20:57:39.403Z,9.23
2022-09-25T21:00:06.966Z,8.15
2022-09-25T21:02:34.313Z,11.05
2022-09-25T21:05:01.663Z,8.30
2022-09-25T21:07:28.898Z,11.15
2022-09-25T21:09:56.297Z,8.85
2022-09-25T21:12:23.515Z,7.57
2022-09-25T21:14:50.945Z,8.52
2022-09-25T21:17:18.484Z,7.05
2022-09-25T21:19:45.888Z,6.85
2022-09-25T21:22:13.432Z,9.40
2022-09-25T21:24:40.686Z,8.80
2022-09-25T21:27:08.005Z,8.27
2022-09-25T21:29:35.492Z,8.18
2022-09-25T21:32:03.926Z,10.93
2022-09-25T21:34:31.321Z,8.18
2022-09-25T21:36:58.567Z,9.43
2022-09-25T21:39:25.778Z,8.55
2022-09-25T21:41:53.331Z,12.02
2022-09-25T21:44:21.371Z,7.95
2022-09-25T21:46:48.687Z,8.45
2022-09-25T21:49:17.071Z,7.45
2022-09-25T21:51:45.412Z,6.45
2022-09-25T21:54:13.502Z,7.80
2022-09-25T21:56:41.473Z,7.47
2022-09-25T21:59:09.612Z,15.00
2022-09-25T22:01:38.849Z,16.13
2022-09-25T22:04:07.117Z,10.48
2022-09-25T22:06:36.117Z,16.02
2022-09-25T22:09:05.927Z,13.20
2022-09-25T22:11:33.610Z,9.90
2022-09-25T22:14:01.908Z,15.70
2022-09-25T22:16:34.112Z,11.27
2022-09-25T22:19:02.827Z,13.77
2022-09-25T22:21:31.751Z,9.73
2022-09-25T22:23:59.409Z,9.93
2022-09-25T22:26:27.493Z,9.13
2022-09-25T22:28:54.972Z,11.20
2022-09-25T22:31:24.119Z,10.77
2022-09-25T22:33:54.268Z,11.50
2022-09-25T22:36:21.499Z,9.27
2022-09-25T22:38:48.832Z,7.78
2022-09-25T22:41:17.126Z,7.80
2022-09-25T22:43:44.404Z,7.13
2022-09-25T22:46:12.447Z,6.80
2022-09-25T22:48:40.169Z,14.95
2022-09-25T22:51:15.749Z,7.85
2022-09-25T22:53:43.524Z,10.20
2022-09-25T22:56:11.993Z,11.27
2022-09-25T22:58:39.485Z,11.30
2022-09-25T23:01:08.249Z,12.80
2022-09-25T23:03:35.588Z,9.25
2022-09-25T23:06:03.706Z,9.70
2022-09-25T23:08:31.287Z,9.27
2022-09-25T23:11:08.655Z,8.05
2022-09-25T23:13:36.559Z,8.35
2022-09-25T23:16:07.953Z,9.88
2022-09-25T23:18:38.417Z,9.10
2022-09-25T23:21:06.068Z,16.60
2022-09-25T23:23:33.536Z,10.30
2022-09-25T23:26:06.417Z,8.77
2022-09-25T23:28:38.038Z,9.02
2022-09-25T23:31:08.155Z,12.00
2022-09-25T23:33:35.481Z,19.85
2022-09-25T23:36:10.132Z,10.65
2022-09-25T23:38:37.720Z,14.98
2022-09-25T23:41:18.461Z,11.30
2022-09-25T23:43:46.088Z,13.93
2022-09-25T23:46:13.755Z,10.27
2022-09-25T23:48:41.028Z,8.93
2022-09-25T23:51:08.926Z,7.85
2022-09-25T23:53:36.573Z,9.27
2022-09-25T23:56:12.315Z,10.70
2022-09-25T23:58:40.096Z,12.73
